Time;durP1;ratioP1;P1;durP2;ratioP2;P2;SDS_P1;SDS_P2;PMS_P1;PMS_P2;Temp;Humidity;BMP_temperature;BMP_pressure;BME280_temperature;BME280_humidity;BME280_pressure;Samples;Min_cycle;Max_cycle;Signal;HPM_P1;HPM_P2
2022/06/25 00:01:30;;;;;;;9.93;8.38;;;19.00;99.90;;;;;;5092565;28;20270;-51
2022/06/25 00:03:58;;;;;;;13.18;8.80;;;19.00;99.90;;;;;;5084679;28;20996;-51
2022/06/25 00:06:26;;;;;;;11.63;10.00;;;19.00;99.90;;;;;;5099857;28;20240;-51
2022/06/25 00:08:55;;;;;;;11.43;10.23;;;19.00;99.90;;;;;;5095822;28;20251;-51
2022/06/25 00:14:12;;;;;;;11.68;10.20;;;18.90;99.90;;;;;;5097935;28;20231;-51
2022/06/25 00:16:40;;;;;;;13.13;10.07;;;18.90;99.90;;;;;;5109632;28;20226;-51
2022/06/25 00:19:08;;;;;;;11.57;10.38;;;18.90;99.90;;;;;;5110017;28;20235;-51
2022/06/25 00:21:36;;;;;;;11.48;9.93;;;18.90;99.90;;;;;;5105919;28;20200;-51
2022/06/25 00:24:05;;;;;;;13.65;12.00;;;18.90;99.90;;;;;;5104926;28;20203;-51
2022/06/25 00:26:34;;;;;;;14.55;13.05;;;18.90;99.90;;;;;;5109782;28;20361;-51
2022/06/25 00:29:02;;;;;;;12.82;11.40;;;18.90;99.90;;;;;;5109058;28;20258;-51
2022/06/25 00:31:30;;;;;;;14.60;12.20;;;18.90;99.90;;;;;;5110095;28;20199;-51
2022/06/25 00:33:59;;;;;;;15.07;11.75;;;18.90;99.90;;;;;;5110048;28;20253;-51
2022/06/25 00:36:27;;;;;;;12.30;10.95;;;18.80;99.90;;;;;;5110318;28;20607;-51
2022/06/25 00:38:55;;;;;;;15.70;12.27;;;18.90;99.90;;;;;;5109271;28;20250;-51
2022/06/25 00:41:23;;;;;;;14.35;12.88;;;18.90;99.90;;;;;;5110361;28;20234;-51
2022/06/25 00:43:52;;;;;;;13.00;11.55;;;18.80;99.90;;;;;;5110369;28;20203;-51
2022/06/25 00:46:21;;;;;;;16.50;12.15;;;18.80;99.90;;;;;;5109911;28;20563;-51
2022/06/25 00:48:49;;;;;;;14.55;11.35;;;18.80;99.90;;;;;;5099645;28;20212;-51
2022/06/25 00:51:19;;;;;;;16.20;11.73;;;18.80;99.90;;;;;;5104483;28;20918;-51
2022/06/25 00:53:47;;;;;;;17.33;12.80;;;18.80;99.90;;;;;;5109417;28;20719;-51
2022/06/25 00:56:16;;;;;;;15.68;13.70;;;18.80;99.90;;;;;;5107897;28;20223;-51
2022/06/25 00:58:45;;;;;;;15.82;12.73;;;18.80;99.90;;;;;;5089413;28;20334;-51
2022/06/25 01:01:15;;;;;;;19.13;11.50;;;18.80;99.90;;;;;;5093466;28;20204;-51
2022/06/25 01:03:44;;;;;;;14.85;12.93;;;18.90;99.90;;;;;;5095337;28;20196;-51
2022/06/25 01:06:12;;;;;;;15.52;12.75;;;18.90;99.90;;;;;;5109045;28;20214;-51
2022/06/25 01:08:40;;;;;;;18.08;12.20;;;18.90;99.90;;;;;;5109505;28;20224;-51
2022/06/25 01:11:11;;;;;;;15.40;12.13;;;18.90;99.90;;;;;;5110409;28;20211;-51
2022/06/25 01:13:39;;;;;;;17.25;13.25;;;18.80;99.90;;;;;;5098608;28;20230;-51
2022/06/25 01:16:07;;;;;;;16.42;12.70;;;18.80;99.90;;;;;;5110073;28;20211;-51
2022/06/25 01:18:36;;;;;;;14.57;12.75;;;18.80;99.90;;;;;;5109314;28;20235;-51
2022/06/25 01:21:04;;;;;;;16.98;14.48;;;18.80;99.90;;;;;;5109900;28;20208;-51
2022/06/25 01:23:34;;;;;;;16.77;12.90;;;18.80;99.90;;;;;;5101987;28;20203;-51
2022/06/25 01:26:02;;;;;;;14.07;12.57;;;18.80;99.90;;;;;;5109810;28;20214;-51
2022/06/25 01:28:30;;;;;;;16.75;11.60;;;18.80;99.90;;;;;;5109334;28;20972;-51
2022/06/25 01:30:59;;;;;;;15.15;12.55;;;18.80;99.90;;;;;;5108878;28;20203;-51
2022/06/25 01:33:27;;;;;;;19.45;12.52;;;18.80;99.90;;;;;;5110757;28;20216;-51
2022/06/25 01:35:55;;;;;;;15.27;11.35;;;18.90;99.90;;;;;;5104203;28;20260;-51
2022/06/25 01:38:23;;;;;;;17.35;14.15;;;18.80;99.90;;;;;;5111491;28;20231;-51
2022/06/25 01:40:53;;;;;;;15.52;13.98;;;18.80;99.90;;;;;;5099725;28;20753;-51
2022/06/25 01:43:21;;;;;;;19.75;14.95;;;18.80;99.90;;;;;;5095964;28;20309;-51
2022/06/25 01:45:49;;;;;;;16.02;13.25;;;18.80;99.90;;;;;;5107497;28;20665;-51
2022/06/25 01:48:17;;;;;;;20.02;14.20;;;18.80;99.90;;;;;;5100622;28;20215;-51
2022/06/25 01:50:45;;;;;;;16.77;12.57;;;18.80;99.90;;;;;;5109111;28;20211;-51
2022/06/25 01:53:14;;;;;;;14.68;12.85;;;18.80;99.90;;;;;;5112247;28;20214;-51
2022/06/25 01:55:42;;;;;;;16.75;13.63;;;18.80;99.90;;;;;;5099963;28;20277;-51
2022/06/25 01:58:11;;;;;;;21.05;12.23;;;18.80;99.90;;;;;;5090002;28;20270;-51
2022/06/25 02:00:39;;;;;;;21.95;15.30;;;18.90;99.90;;;;;;5091016;28;20197;-50
2022/06/25 02:03:07;;;;;;;17.83;13.10;;;18.90;99.90;;;;;;5096606;28;20227;-51
2022/06/25 02:08:22;;;;;;;15.13;13.23;;;18.80;99.90;;;;;;5111225;28;20203;-51
2022/06/25 02:10:51;;;;;;;15.90;13.02;;;18.80;99.90;;;;;;5112448;28;20257;-51
2022/06/25 02:13:21;;;;;;;20.75;16.10;;;18.80;99.90;;;;;;5098715;28;20208;-51
2022/06/25 02:15:49;;;;;;;15.70;14.07;;;18.80;99.90;;;;;;5112683;28;20204;-51
2022/06/25 02:18:18;;;;;;;17.60;14.43;;;18.70;99.90;;;;;;5112241;28;20700;-51
2022/06/25 02:20:46;;;;;;;15.75;14.07;;;18.70;99.90;;;;;;5112481;28;20249;-51
2022/06/25 02:23:16;;;;;;;16.00;11.77;;;18.70;99.90;;;;;;5110037;28;20666;-51
2022/06/25 02:25:44;;;;;;;11.35;10.10;;;18.70;99.90;;;;;;5113013;28;20231;-51
2022/06/25 02:28:15;;;;;;;14.82;9.32;;;18.70;99.90;;;;;;5099125;28;20254;-51
2022/06/25 02:30:45;;;;;;;10.50;9.10;;;18.70;99.90;;;;;;5105975;28;20254;-51
2022/06/25 02:33:14;;;;;;;11.70;9.52;;;18.60;99.90;;;;;;5091799;28;20208;-51
2022/06/25 02:35:44;;;;;;;12.73;9.05;;;18.60;99.90;;;;;;5094173;28;20676;-50
2022/06/25 02:38:13;;;;;;;11.48;10.27;;;18.70;99.90;;;;;;5102063;28;20258;-51
2022/06/25 02:40:41;;;;;;;11.55;10.30;;;18.60;99.90;;;;;;5100407;28;20208;-51
2022/06/25 02:43:09;;;;;;;13.75;10.32;;;18.70;99.90;;;;;;5092777;28;20273;-51
2022/06/25 02:45:37;;;;;;;10.52;9.52;;;18.60;99.90;;;;;;5107258;28;20208;-51
2022/06/25 02:48:07;;;;;;;13.48;10.85;;;18.60;99.90;;;;;;5110097;28;20268;-51
2022/06/25 02:50:35;;;;;;;14.18;11.27;;;18.60;99.90;;;;;;5111964;28;20203;-51
2022/06/25 02:53:03;;;;;;;12.80;11.50;;;18.60;99.90;;;;;;5112182;28;20276;-51
2022/06/25 03:01:14;;;;;;;16.13;10.45;;;18.40;99.90;;;;;;5047357;28;20233;-51
2022/06/25 03:03:43;;;;;;;11.82;10.60;;;18.40;99.90;;;;;;5081496;28;20274;-51
2022/06/25 03:06:12;;;;;;;16.10;11.82;;;18.40;99.90;;;;;;5105196;28;20684;-51
2022/06/25 03:08:40;;;;;;;20.55;12.35;;;18.40;99.90;;;;;;5111471;28;20666;-51
2022/06/25 03:11:08;;;;;;;12.07;10.55;;;18.40;99.90;;;;;;5111900;28;20261;-51
2022/06/25 03:13:37;;;;;;;14.60;11.15;;;18.40;99.90;;;;;;5108473;28;20211;-52
2022/06/25 03:16:06;;;;;;;15.48;11.57;;;18.40;99.90;;;;;;5111192;28;20729;-51
2022/06/25 03:18:34;;;;;;;15.40;10.88;;;18.40;99.90;;;;;;5111228;28;20235;-51
2022/06/25 03:21:04;;;;;;;14.80;11.82;;;18.50;99.90;;;;;;5111253;28;20720;-51
2022/06/25 03:23:33;;;;;;;13.57;12.27;;;18.50;99.90;;;;;;5098100;28;20208;-51
2022/06/25 03:26:01;;;;;;;19.27;15.40;;;18.60;99.90;;;;;;5111428;28;20204;-51
2022/06/25 03:28:29;;;;;;;21.17;15.75;;;18.50;99.90;;;;;;5100665;28;20262;-52
2022/06/25 03:30:57;;;;;;;14.80;13.32;;;18.50;99.90;;;;;;5110882;28;20246;-51
2022/06/25 03:33:25;;;;;;;22.40;18.60;;;18.40;99.90;;;;;;5111305;28;20196;-51
2022/06/25 03:35:53;;;;;;;17.42;15.00;;;18.40;99.90;;;;;;5111323;28;20664;-51
2022/06/25 03:38:22;;;;;;;22.02;17.80;;;18.30;99.90;;;;;;5110372;28;20256;-51
2022/06/25 03:41:32;;;;;;;20.67;16.63;;;18.30;99.90;;;;;;5106342;28;20629;-51
2022/06/25 03:43:39;;;;;;;24.73;17.08;;;18.30;99.90;;;;;;5079858;28;20639;-51
2022/06/25 03:46:07;;;;;;;17.38;15.57;;;18.30;99.90;;;;;;5073129;28;20251;-51
2022/06/25 03:48:38;;;;;;;17.10;15.15;;;18.20;99.90;;;;;;5075239;28;20228;-51
2022/06/25 03:51:07;;;;;;;17.10;14.45;;;18.20;99.90;;;;;;5074260;28;20234;-51
2022/06/25 03:53:36;;;;;;;22.75;17.27;;;18.20;99.90;;;;;;5068979;28;20213;-51
2022/06/25 03:56:05;;;;;;;18.27;16.30;;;18.20;99.90;;;;;;5074423;28;20858;-51
2022/06/25 03:58:33;;;;;;;23.33;16.70;;;18.20;99.90;;;;;;5071912;28;20303;-51
2022/06/25 04:01:01;;;;;;;18.60;16.80;;;18.20;99.90;;;;;;5071892;28;20201;-51
2022/06/25 04:03:29;;;;;;;22.15;16.17;;;18.20;99.90;;;;;;5073049;28;20239;-51
2022/06/25 04:05:58;;;;;;;16.92;15.13;;;18.10;99.90;;;;;;5074098;28;20239;-51
2022/06/25 04:08:27;;;;;;;20.20;15.35;;;18.20;99.90;;;;;;5071685;28;20678;-52
2022/06/25 04:10:57;;;;;;;25.95;17.42;;;18.20;99.90;;;;;;5079231;28;20219;-51
2022/06/25 04:13:25;;;;;;;18.20;15.20;;;18.20;99.90;;;;;;5071575;28;20228;-51
2022/06/25 04:15:53;;;;;;;18.58;15.65;;;18.20;99.90;;;;;;5089262;28;20208;-51
2022/06/25 04:18:26;;;;;;;18.48;16.00;;;18.20;99.90;;;;;;5087323;28;20621;-51
2022/06/25 04:20:54;;;;;;;18.85;15.65;;;18.20;99.90;;;;;;5089672;28;20224;-51
2022/06/25 04:23:22;;;;;;;16.30;14.48;;;18.20;99.90;;;;;;5088989;28;20208;-51
2022/06/25 04:25:50;;;;;;;16.92;13.40;;;18.20;99.90;;;;;;5088916;28;20205;-51
2022/06/25 04:31:05;;;;;;;16.02;14.32;;;18.20;99.90;;;;;;5089741;28;20208;-51
2022/06/25 04:33:34;;;;;;;20.13;15.55;;;18.30;99.90;;;;;;5088311;28;20204;-51
2022/06/25 04:36:02;;;;;;;15.93;14.25;;;18.30;99.90;;;;;;5087136;28;20212;-51
2022/06/25 04:38:30;;;;;;;15.38;13.85;;;18.30;99.90;;;;;;5089041;28;20313;-50
2022/06/25 04:40:58;;;;;;;16.08;13.30;;;18.50;99.90;;;;;;5089040;28;20255;-51
2022/06/25 04:43:27;;;;;;;16.67;14.80;;;18.60;99.90;;;;;;5088812;28;21392;-51
2022/06/25 04:45:55;;;;;;;18.25;14.95;;;18.60;99.90;;;;;;5090547;28;20200;-51
2022/06/25 04:48:23;;;;;;;16.38;13.98;;;18.60;99.90;;;;;;5089113;28;20223;-51
2022/06/25 04:50:51;;;;;;;14.73;12.88;;;18.80;99.90;;;;;;5089805;28;20253;-52
2022/06/25 04:53:20;;;;;;;14.65;13.13;;;18.90;99.90;;;;;;5085871;28;20213;-51
2022/06/25 04:55:48;;;;;;;17.48;14.15;;;19.00;99.90;;;;;;5077174;28;20197;-51
2022/06/25 04:58:16;;;;;;;18.20;14.68;;;19.00;99.90;;;;;;5089549;28;20204;-51
2022/06/25 05:00:45;;;;;;;15.77;13.65;;;19.00;99.90;;;;;;5089580;28;20208;-51
2022/06/25 05:03:13;;;;;;;15.52;11.80;;;19.10;99.90;;;;;;5089389;28;20246;-51
2022/06/25 05:05:41;;;;;;;12.18;10.35;;;19.90;99.90;;;;;;5089504;28;20206;-51
2022/06/25 05:08:10;;;;;;;12.23;10.88;;;20.90;99.90;;;;;;5089604;28;20693;-52
2022/06/25 05:10:38;;;;;;;11.15;10.05;;;21.90;99.90;;;;;;5093498;28;20249;-51
2022/06/25 05:13:15;;;;;;;9.50;8.55;;;21.90;99.90;;;;;;5093886;28;20204;-51
2022/06/25 05:15:45;;;;;;;11.02;9.27;;;22.60;99.90;;;;;;5093154;28;20235;-51
2022/06/25 05:18:13;;;;;;;9.00;8.20;;;23.30;99.90;;;;;;5093276;28;20220;-51
2022/06/25 05:20:43;;;;;;;11.63;7.80;;;22.90;99.90;;;;;;5092710;28;20693;-51
2022/06/25 05:23:12;;;;;;;10.50;7.32;;;22.90;99.90;;;;;;5093247;28;20673;-51
2022/06/25 05:25:41;;;;;;;12.50;8.10;;;23.50;99.90;;;;;;5084912;28;20557;-51
2022/06/25 05:28:10;;;;;;;8.68;7.18;;;24.10;99.90;;;;;;5089995;28;20200;-52
2022/06/25 05:30:38;;;;;;;9.35;7.00;;;24.60;99.90;;;;;;5092947;28;20200;-52
2022/06/25 05:33:08;;;;;;;6.60;5.85;;;24.70;99.90;;;;;;5088587;28;20646;-51
2022/06/25 05:35:36;;;;;;;7.05;6.07;;;25.30;99.90;;;;;;5092085;28;20200;-52
2022/06/25 05:38:06;;;;;;;9.73;6.40;;;24.80;99.90;;;;;;5091708;28;20212;-51
2022/06/25 05:40:35;;;;;;;8.40;5.97;;;24.60;99.90;;;;;;5088613;28;20328;-51
2022/06/25 05:43:03;;;;;;;7.72;6.03;;;25.20;99.90;;;;;;5088713;28;20408;-52
2022/06/25 05:45:32;;;;;;;6.47;5.85;;;25.70;99.90;;;;;;5096952;28;20211;-52
2022/06/25 05:48:00;;;;;;;6.57;5.32;;;25.70;99.90;;;;;;5092800;28;20249;-51
2022/06/25 05:50:30;;;;;;;4.68;4.28;;;24.80;99.90;;;;;;5092688;28;20221;-51
2022/06/25 05:52:58;;;;;;;7.75;4.25;;;24.20;99.90;;;;;;5093461;28;20208;-52
2022/06/25 05:55:26;;;;;;;6.50;5.28;;;24.20;99.90;;;;;;5096017;28;20200;-51
2022/06/25 05:57:55;;;;;;;9.55;5.13;;;23.70;99.90;;;;;;5091984;28;20257;-52
2022/06/25 06:00:23;;;;;;;7.50;5.25;;;23.30;99.90;;;;;;5092405;28;20220;-52
2022/06/25 06:02:51;;;;;;;8.43;5.70;;;23.00;99.90;;;;;;5091119;28;20205;-52
2022/06/25 06:05:19;;;;;;;6.22;4.30;;;23.00;99.90;;;;;;5092395;28;20203;-52
2022/06/25 06:07:49;;;;;;;4.60;4.20;;;23.40;99.90;;;;;;5091177;28;20661;-51
2022/06/25 06:10:17;;;;;;;4.38;3.97;;;23.10;99.90;;;;;;5091507;28;20255;-53
2022/06/25 06:12:45;;;;;;;5.53;3.80;;;23.10;99.90;;;;;;5091703;28;20705;-51
2022/06/25 06:15:13;;;;;;;6.10;3.80;;;24.00;99.90;;;;;;5091486;28;20269;-52
2022/06/25 06:17:42;;;;;;;5.10;4.28;;;25.00;99.90;;;;;;5091286;28;20239;-52
2022/06/25 06:20:10;;;;;;;7.13;4.20;;;25.70;99.90;;;;;;5091266;28;20275;-52
2022/06/25 06:22:38;;;;;;;6.75;3.70;;;25.10;99.90;;;;;;5091221;28;20633;-52
2022/06/25 06:25:09;;;;;;;5.63;3.80;;;24.70;99.90;;;;;;5091677;28;20236;-51
2022/06/25 06:27:37;;;;;;;4.75;4.25;;;24.20;99.90;;;;;;5091098;28;20208;-52
2022/06/25 06:30:08;;;;;;;4.20;3.80;;;23.80;99.90;;;;;;5091743;28;20332;-51
2022/06/25 06:32:36;;;;;;;8.38;4.43;;;23.60;99.90;;;;;;5090234;28;20208;-51
2022/06/25 06:35:06;;;;;;;5.82;4.43;;;23.40;99.90;;;;;;5091054;28;20258;-52
2022/06/25 06:37:34;;;;;;;6.35;4.07;;;23.20;99.90;;;;;;5089731;28;20857;-51
2022/06/25 06:40:02;;;;;;;4.75;4.00;;;23.10;99.90;;;;;;5089098;28;20257;-51
2022/06/25 06:42:32;;;;;;;5.28;3.65;;;23.10;99.90;;;;;;5089278;28;20258;-52
2022/06/25 06:45:00;;;;;;;5.85;3.92;;;23.30;99.90;;;;;;5094574;28;20204;-52
2022/06/25 06:47:28;;;;;;;6.68;4.38;;;23.80;99.90;;;;;;5092390;28;20932;-52
2022/06/25 06:49:56;;;;;;;5.82;4.43;;;25.20;99.90;;;;;;5088455;28;20226;-52
2022/06/25 06:52:30;;;;;;;4.15;3.17;;;26.40;99.90;;;;;;5095757;28;20195;-52
2022/06/25 06:54:59;;;;;;;4.25;3.38;;;27.10;99.90;;;;;;5091025;28;21064;-51
2022/06/25 06:57:27;;;;;;;5.55;3.55;;;27.30;99.90;;;;;;5093982;28;20619;-52
2022/06/25 06:59:58;;;;;;;6.20;3.70;;;27.20;99.90;;;;;;5093910;28;20289;-52
2022/06/25 07:02:26;;;;;;;4.43;2.92;;;26.60;99.90;;;;;;5093133;28;20262;-53
2022/06/25 07:04:54;;;;;;;6.22;3.70;;;25.90;99.90;;;;;;5081224;28;20196;-52
2022/06/25 07:07:23;;;;;;;6.32;3.88;;;25.40;99.90;;;;;;5088484;28;20208;-52
2022/06/25 07:09:51;;;;;;;5.18;3.80;;;25.00;99.90;;;;;;5092015;28;20228;-51
2022/06/25 07:12:19;;;;;;;4.40;3.38;;;24.50;99.90;;;;;;5089599;28;20205;-52
2022/06/25 07:14:47;;;;;;;5.78;3.67;;;24.20;99.90;;;;;;5088802;28;20233;-51
2022/06/25 07:17:16;;;;;;;5.55;3.72;;;24.40;99.90;;;;;;5088582;28;20265;-51
2022/06/25 07:19:44;;;;;;;4.20;3.75;;;24.60;99.90;;;;;;5090906;28;20224;-52
2022/06/25 07:22:12;;;;;;;5.68;4.15;;;24.50;99.90;;;;;;5091444;28;20240;-51
2022/06/25 07:24:40;;;;;;;5.47;4.07;;;24.40;99.90;;;;;;5092087;28;20204;-51
2022/06/25 07:27:08;;;;;;;5.28;3.60;;;24.20;99.90;;;;;;5093387;28;20239;-51
2022/06/25 07:29:37;;;;;;;7.35;4.00;;;24.20;99.90;;;;;;5091519;28;20224;-51
2022/06/25 07:32:05;;;;;;;5.78;4.18;;;24.30;99.90;;;;;;5091329;28;20243;-51
2022/06/25 07:34:35;;;;;;;4.22;3.75;;;24.10;99.90;;;;;;5090876;28;20207;-51
2022/06/25 07:37:04;;;;;;;5.70;3.88;;;23.90;99.90;;;;;;5088010;28;20204;-51
2022/06/25 07:39:32;;;;;;;5.78;4.22;;;23.80;99.90;;;;;;5084845;28;20224;-52
2022/06/25 07:42:00;;;;;;;4.65;3.70;;;24.00;99.90;;;;;;5084081;28;20274;-51
2022/06/25 07:44:28;;;;;;;5.00;4.00;;;24.00;99.90;;;;;;5089532;28;20200;-51
2022/06/25 07:46:56;;;;;;;9.65;4.55;;;24.00;99.90;;;;;;5077243;28;20246;-51
2022/06/25 07:49:25;;;;;;;5.18;4.32;;;23.90;99.90;;;;;;5091296;28;20252;-51
2022/06/25 07:52:00;;;;;;;9.07;4.78;;;23.80;99.90;;;;;;5087524;28;20234;-52
2022/06/25 07:54:30;;;;;;;6.13;4.15;;;23.80;99.90;;;;;;5091017;28;20203;-52
2022/06/25 07:56:59;;;;;;;7.93;4.60;;;23.70;99.90;;;;;;5094152;28;20250;-51
2022/06/25 07:59:27;;;;;;;6.63;4.55;;;23.80;99.90;;;;;;5092244;28;20224;-51
2022/06/25 08:01:55;;;;;;;7.75;4.10;;;23.80;99.90;;;;;;5090838;28;20295;-51
2022/06/25 08:04:23;;;;;;;5.75;4.40;;;24.20;99.90;;;;;;5090481;28;20746;-51
2022/06/25 08:06:51;;;;;;;7.60;4.40;;;24.20;99.90;;;;;;5092585;28;20200;-51
2022/06/25 08:09:20;;;;;;;9.43;4.25;;;24.00;99.90;;;;;;5092968;28;20708;-51
2022/06/25 08:11:49;;;;;;;5.10;4.22;;;23.80;99.90;;;;;;5089613;28;20228;-51
2022/06/25 08:14:17;;;;;;;6.38;4.00;;;23.80;99.90;;;;;;5091785;28;20940;-51
2022/06/25 08:16:45;;;;;;;6.15;3.75;;;23.90;99.90;;;;;;5094136;28;20755;-51
2022/06/25 08:19:13;;;;;;;6.22;4.45;;;24.00;99.90;;;;;;5090730;28;20232;-52
2022/06/25 08:21:41;;;;;;;5.43;4.28;;;24.00;99.90;;;;;;5089285;28;20591;-52
2022/06/25 08:24:10;;;;;;;7.97;4.40;;;23.90;99.90;;;;;;5085333;28;20208;-52
2022/06/25 08:26:39;;;;;;;5.57;4.40;;;24.10;99.90;;;;;;5092771;28;20208;-51
2022/06/25 08:29:07;;;;;;;6.50;4.45;;;24.10;99.90;;;;;;5089093;28;20224;-52
2022/06/25 08:31:35;;;;;;;9.63;4.88;;;24.10;99.90;;;;;;5091912;28;20230;-52
2022/06/25 08:34:03;;;;;;;8.32;5.30;;;24.10;99.90;;;;;;5097086;28;20232;-51
2022/06/25 08:36:31;;;;;;;6.72;4.65;;;24.20;99.90;;;;;;5093284;28;20236;-51
2022/06/25 08:38:59;;;;;;;8.43;5.60;;;24.30;99.90;;;;;;5089664;28;20887;-52
2022/06/25 08:41:28;;;;;;;9.85;4.40;;;24.30;99.90;;;;;;5093079;28;20812;-51
2022/06/25 08:43:58;;;;;;;7.60;5.10;;;24.40;99.90;;;;;;5087794;28;20726;-52
2022/06/25 08:46:26;;;;;;;7.93;4.90;;;24.70;99.90;;;;;;5089527;28;20212;-51
2022/06/25 08:48:57;;;;;;;7.80;4.25;;;24.90;99.90;;;;;;5092674;28;20345;-51
2022/06/25 08:51:27;;;;;;;8.13;5.40;;;24.80;99.90;;;;;;5094541;28;20192;-51
2022/06/25 08:53:56;;;;;;;7.15;4.50;;;24.70;99.90;;;;;;5088258;28;20572;-51
2022/06/25 08:56:25;;;;;;;6.50;4.75;;;24.60;99.90;;;;;;5092680;28;20200;-50
2022/06/25 08:58:53;;;;;;;4.80;4.28;;;24.70;99.90;;;;;;5088570;28;20224;-51
2022/06/25 09:01:22;;;;;;;4.93;4.45;;;24.60;99.90;;;;;;5090197;28;20261;-51
2022/06/25 09:03:51;;;;;;;7.47;5.28;;;24.50;99.90;;;;;;5089677;28;20215;-51
2022/06/25 09:06:21;;;;;;;6.57;4.53;;;24.40;99.90;;;;;;5093223;28;20290;-51
2022/06/25 09:09:09;;;;;;;5.63;4.30;;;24.60;99.90;;;;;;5088586;28;20224;-51
2022/06/25 09:11:55;;;;;;;7.90;4.68;;;24.50;99.90;;;;;;5088786;28;20299;-50
2022/06/25 09:14:25;;;;;;;7.63;4.82;;;25.00;99.90;;;;;;5087816;28;20235;-51
2022/06/25 09:16:59;;;;;;;7.78;4.63;;;25.10;99.90;;;;;;5088510;28;20203;-50
2022/06/25 09:19:30;;;;;;;7.63;4.45;;;25.20;99.90;;;;;;5088946;28;20303;-51
2022/06/25 09:21:58;;;;;;;9.60;4.70;;;25.10;99.90;;;;;;5087937;28;20228;-51
2022/06/25 09:24:41;;;;;;;7.28;4.20;;;25.00;99.90;;;;;;5088309;28;20310;-51
2022/06/25 09:27:08;;;;;;;5.03;4.30;;;25.00;99.90;;;;;;5094144;28;20195;-51
2022/06/25 09:29:38;;;;;;;6.05;4.47;;;24.60;99.90;;;;;;5089228;28;20224;-52
2022/06/25 09:32:08;;;;;;;4.93;4.13;;;24.60;99.90;;;;;;5089490;28;20235;-51
2022/06/25 09:34:37;;;;;;;4.90;4.45;;;24.70;99.90;;;;;;5088312;28;20254;-51
2022/06/25 09:37:19;;;;;;;5.00;4.50;;;24.80;99.90;;;;;;5088607;28;20244;-51
2022/06/25 09:39:48;;;;;;;8.13;4.70;;;24.90;99.90;;;;;;5088560;28;20687;-51
2022/06/25 09:42:30;;;;;;;10.98;4.43;;;25.00;99.90;;;;;;5088323;28;20320;-51
2022/06/25 09:45:05;;;;;;;6.25;4.40;;;25.30;99.90;;;;;;5082341;28;20244;-51
2022/06/25 09:47:42;;;;;;;6.07;4.20;;;25.10;99.90;;;;;;5085029;28;21022;-52
2022/06/25 09:50:12;;;;;;;8.45;4.30;;;24.90;99.90;;;;;;5086233;28;20231;-51
2022/06/25 09:52:51;;;;;;;4.97;3.97;;;24.70;99.90;;;;;;5085490;28;20200;-52
2022/06/25 09:55:20;;;;;;;4.85;3.90;;;24.80;99.90;;;;;;5086479;28;20218;-51
2022/06/25 09:57:49;;;;;;;5.40;4.88;;;25.30;99.90;;;;;;5089411;28;20726;-51
2022/06/25 10:00:18;;;;;;;7.82;3.80;;;25.50;99.90;;;;;;5093175;28;20275;-51
2022/06/25 10:02:49;;;;;;;5.80;4.35;;;25.50;99.90;;;;;;5089922;28;20259;-51
2022/06/25 10:05:18;;;;;;;10.38;4.50;;;25.70;99.90;;;;;;5091714;28;20246;-51
2022/06/25 10:08:04;;;;;;;6.57;4.10;;;25.80;99.90;;;;;;5091985;28;20257;-51
2022/06/25 10:10:40;;;;;;;11.80;4.55;;;25.80;99.90;;;;;;5089948;28;20643;-51
2022/06/25 10:13:09;;;;;;;7.30;3.97;;;25.60;99.90;;;;;;5091709;28;20715;-51
2022/06/25 10:15:38;;;;;;;5.00;4.47;;;25.80;99.90;;;;;;5089890;28;20200;-51
2022/06/25 10:18:09;;;;;;;5.53;4.30;;;25.90;99.90;;;;;;5090816;28;20223;-51
2022/06/25 10:20:38;;;;;;;5.40;4.60;;;25.80;99.90;;;;;;5090869;28;20250;-51
2022/06/25 10:23:09;;;;;;;9.23;4.43;;;25.80;99.90;;;;;;5091383;28;20584;-51
2022/06/25 10:25:38;;;;;;;5.75;4.60;;;25.80;99.90;;;;;;5091192;28;20262;-51
2022/06/25 10:28:09;;;;;;;11.90;4.60;;;25.60;99.90;;;;;;5091534;28;20681;-51
2022/06/25 10:30:47;;;;;;;8.73;4.45;;;25.60;99.90;;;;;;5090974;28;20209;-52
2022/06/25 10:33:18;;;;;;;7.07;4.30;;;25.50;99.90;;;;;;5091615;28;20215;-51
2022/06/25 10:35:46;;;;;;;6.80;3.97;;;25.40;99.90;;;;;;5090864;28;20242;-51
2022/06/25 10:38:17;;;;;;;7.18;4.32;;;25.30;99.90;;;;;;5091240;28;20242;-51
2022/06/25 10:40:51;;;;;;;7.25;4.88;;;25.40;99.90;;;;;;5091550;28;20761;-52
2022/06/25 10:43:42;;;;;;;7.80;4.30;;;25.40;99.90;;;;;;5090965;28;20724;-51
2022/06/25 10:46:30;;;;;;;7.63;4.80;;;25.20;99.90;;;;;;5088943;28;20200;-51
2022/06/25 10:49:07;;;;;;;6.35;5.00;;;25.10;99.90;;;;;;5087406;28;20243;-51
2022/06/25 10:51:42;;;;;;;6.03;4.30;;;25.30;99.90;;;;;;5090859;28;20203;-51
2022/06/25 10:54:14;;;;;;;4.97;4.30;;;25.30;99.90;;;;;;5090427;28;20203;-52
2022/06/25 10:56:45;;;;;;;6.18;4.38;;;25.20;99.90;;;;;;5087741;28;20620;-51
2022/06/25 10:59:45;;;;;;;6.88;4.78;;;25.30;99.90;;;;;;5097504;28;20398;-51
2022/06/25 11:02:16;;;;;;;6.32;4.03;;;25.30;99.90;;;;;;5088579;28;20673;-51
2022/06/25 11:04:54;;;;;;;5.75;4.50;;;25.30;99.90;;;;;;5093344;28;20260;-52
2022/06/25 11:07:24;;;;;;;6.00;4.50;;;25.40;99.90;;;;;;5091358;28;20208;-51
2022/06/25 11:09:55;;;;;;;6.18;5.03;;;25.50;99.90;;;;;;5092902;28;20219;-51
2022/06/25 11:12:24;;;;;;;6.07;4.30;;;25.50;99.90;;;;;;5090518;28;20255;-51
2022/06/25 11:14:59;;;;;;;6.40;4.63;;;25.50;99.90;;;;;;5090405;28;20205;-51
2022/06/25 11:17:27;;;;;;;5.47;4.03;;;25.40;99.90;;;;;;5087347;28;20253;-51
2022/06/25 11:20:04;;;;;;;8.25;3.90;;;25.50;99.90;;;;;;5080133;28;20964;-52
2022/06/25 11:22:32;;;;;;;5.25;4.00;;;25.50;99.90;;;;;;5086925;28;20257;-51
2022/06/25 11:30:37;;;;;;;6.28;3.92;;;25.40;99.90;;;;;;5086771;28;20228;-52
2022/06/25 11:33:07;;;;;;;6.60;3.95;;;25.40;99.90;;;;;;5094455;28;20765;-52
2022/06/25 11:35:44;;;;;;;4.05;3.53;;;25.50;99.90;;;;;;5090213;28;20230;-52
2022/06/25 11:38:16;;;;;;;5.75;3.80;;;25.50;99.90;;;;;;5090052;28;20368;-52
2022/06/25 11:40:44;;;;;;;5.80;4.07;;;25.60;99.90;;;;;;5091406;28;20201;-52
2022/06/25 11:43:14;;;;;;;5.53;3.97;;;25.40;99.90;;;;;;5088316;28;20671;-52
2022/06/25 11:45:53;;;;;;;6.00;3.35;;;25.50;99.90;;;;;;5093276;28;20212;-52
2022/06/25 11:48:25;;;;;;;7.30;3.45;;;25.50;99.90;;;;;;5091738;28;20273;-52
2022/06/25 11:50:55;;;;;;;6.05;3.35;;;25.30;99.90;;;;;;5090055;28;20228;-52
2022/06/25 11:53:28;;;;;;;4.35;3.08;;;25.20;99.90;;;;;;5090546;28;20227;-52
2022/06/25 11:55:57;;;;;;;6.50;3.60;;;25.20;99.90;;;;;;5091777;28;20892;-54
2022/06/25 11:58:26;;;;;;;4.30;3.30;;;25.20;99.90;;;;;;5089646;28;20234;-51
2022/06/25 12:00:56;;;;;;;4.88;3.20;;;25.30;99.90;;;;;;5090463;28;20295;-51
2022/06/25 12:03:25;;;;;;;5.68;3.40;;;25.30;99.90;;;;;;5089813;28;20592;-51
2022/06/25 12:05:56;;;;;;;5.13;3.50;;;25.20;99.90;;;;;;5088917;28;20208;-52
2022/06/25 12:08:25;;;;;;;4.85;3.70;;;25.30;99.90;;;;;;5085409;28;20204;-53
2022/06/25 12:10:55;;;;;;;6.28;3.22;;;25.30;99.90;;;;;;5090153;28;20212;-51
2022/06/25 12:13:27;;;;;;;5.55;3.03;;;25.30;99.90;;;;;;5089568;28;20253;-52
2022/06/25 12:15:59;;;;;;;5.22;3.00;;;25.30;99.90;;;;;;5088545;28;20204;-51
2022/06/25 12:18:34;;;;;;;4.85;2.97;;;25.50;99.90;;;;;;5085779;28;20643;-51
2022/06/25 12:21:04;;;;;;;4.32;2.95;;;25.50;99.90;;;;;;5088279;28;20235;-52
2022/06/25 12:23:51;;;;;;;7.53;3.33;;;25.30;99.90;;;;;;5089463;28;20266;-51
2022/06/25 12:26:27;;;;;;;3.40;2.90;;;25.40;99.90;;;;;;5090326;28;20257;-51
2022/06/25 12:29:05;;;;;;;3.42;2.90;;;25.50;99.90;;;;;;5090250;28;20265;-52
2022/06/25 12:31:34;;;;;;;3.80;2.72;;;25.60;99.90;;;;;;5089256;28;20237;-51
2022/06/25 12:34:03;;;;;;;3.72;2.90;;;25.70;99.90;;;;;;5089974;28;20673;-52
2022/06/25 12:36:36;;;;;;;4.75;2.90;;;25.60;99.90;;;;;;5089067;28;20208;-52
2022/06/25 12:39:20;;;;;;;4.43;3.13;;;25.60;99.90;;;;;;5088647;28;20228;-51
2022/06/25 12:41:48;;;;;;;4.32;3.20;;;25.40;99.90;;;;;;5085842;28;20247;-51
2022/06/25 12:44:17;;;;;;;4.88;3.10;;;25.50;99.90;;;;;;5090114;28;20247;-51
2022/06/25 12:46:59;;;;;;;5.28;3.17;;;25.60;99.90;;;;;;5088030;28;20239;-51
2022/06/25 12:49:38;;;;;;;8.20;3.55;;;25.40;99.90;;;;;;5089543;28;20716;-51
2022/06/25 12:52:08;;;;;;;5.53;2.97;;;25.40;99.90;;;;;;5089288;28;20291;-51
2022/06/25 12:54:44;;;;;;;4.60;3.10;;;25.50;99.90;;;;;;5084886;28;20878;-52
2022/06/25 12:57:25;;;;;;;3.03;2.67;;;25.50;99.90;;;;;;5090092;28;20207;-51
2022/06/25 12:59:55;;;;;;;3.35;2.80;;;25.40;99.90;;;;;;5086282;28;20216;-51
2022/06/25 13:02:31;;;;;;;3.13;2.80;;;25.20;99.90;;;;;;5091025;28;20702;-51
2022/06/25 13:05:00;;;;;;;4.15;2.72;;;25.20;99.90;;;;;;5088024;28;20314;-51
2022/06/25 13:07:30;;;;;;;5.65;2.85;;;25.40;99.90;;;;;;5086270;28;20231;-51
2022/06/25 13:09:59;;;;;;;4.25;2.75;;;25.40;99.90;;;;;;5083561;28;20581;-51
2022/06/25 13:12:28;;;;;;;4.22;2.60;;;25.50;99.90;;;;;;5091953;28;20212;-52